Pagina principale
METAR-TAF:

METAR-TAF

Aeroporti :

Orange, Francia

latitudine: 44-08N, longitudine: 004-50E, altezza: 60 m

Osservazione

Il bollettino è stato emesso 17 minuti fa, alle 19:30 UTC
Vento 5 kt da sud
Temperature 13°C
Umidità 82%
Pressione 1027 hPa
Visibilità 10 km o più
Cielo coperto ad un'altezza di 4400 ft

METAR: LFMO 161930Z AUTO 18005KT 9999 OVC044 13/10 Q1027 NOSIG

Ora: 20:47 (19:47 UTC)

Previsione

Il bollettino è stato emesso 5 ore e 47 minuti fa, alle 14:00 UTC
Previsione valida dal 16 alle 15 UTC al 17 alle 15 UTC
Vento 10 kt da sud/sud-est
Visibilità 10 km o più
nessuna nube inferiore a 1500 m e nessun cumulonembo
Temporaneamente
dal 17 alle 01 UTC al 17 alle 10 UTC
Visibilità: 4000 m
Cielo coperto ad un'altezza di 800 ft
pioggia debole, pioviggine

TAF: LFMO 161400Z 1615/1715 16010KT CAVOK TEMPO 1701/1710 4000 -RADZ OVC008

Osservazioni e previsioni meteorologiche di più di 4000 aeroporti (messaggi METAR e TAF).

Le stazioni disponibili sono rappresentate dai dischi gialli e rossi sulla carta.

Puntare il mouse per vedere il nome della stazione.

Clicca sopra per visualizzare le osservazioni e previsioni meteorologiche.

Per cambiare la mappa : fare clic sui pulsanti verdi con una croce nera per ingrandire, il pulsante verde con un trattino per diminuire, o sulla freccia verde per le mappe adiacenti.


METAR-TAF: